Time;durP1;ratioP1;P1;durP2;ratioP2;P2;SDS_P1;SDS_P2;PMS_P1;PMS_P2;Temp;Humidity;BMP_temperature;BMP_pressure;BME280_temperature;BME280_humidity;BME280_pressure;Samples;Min_cycle;Max_cycle;Signal;HPM_P1;HPM_P2
2022/04/19 00:00:56;;;;;;;5.22;3.12;;;13.50;60.10;;;;;;10908047;32;20027;-72
2022/04/19 00:06:58;;;;;;;8.20;5.10;;;13.40;60.40;;;;;;10907890;32;20062;-72
2022/04/19 00:13:01;;;;;;;6.47;4.07;;;13.30;60.50;;;;;;10905100;32;20046;-72
2022/04/19 00:19:04;;;;;;;5.28;3.87;;;13.30;60.90;;;;;;10902928;32;20320;-73
2022/04/19 00:25:07;;;;;;;8.27;4.53;;;13.30;61.00;;;;;;10906192;32;20121;-72
2022/04/19 00:31:09;;;;;;;7.55;4.10;;;13.20;61.20;;;;;;10907135;32;20049;-73
2022/04/19 00:37:11;;;;;;;6.72;5.18;;;13.00;61.90;;;;;;10903016;32;20392;-73
2022/04/19 00:43:15;;;;;;;4.30;2.78;;;13.00;62.00;;;;;;10904322;32;20073;-73
2022/04/19 00:49:17;;;;;;;6.00;3.70;;;12.80;62.80;;;;;;10905447;32;20340;-73
2022/04/19 00:55:20;;;;;;;8.25;4.85;;;12.80;62.90;;;;;;10906492;32;20383;-73
2022/04/19 01:01:22;;;;;;;5.82;3.78;;;12.60;63.80;;;;;;10906180;32;20031;-73
2022/04/19 01:08:07;;;;;;;6.80;4.78;;;12.40;64.00;;;;;;10892035;32;20055;-73
2022/04/19 01:14:09;;;;;;;6.40;4.75;;;12.50;63.90;;;;;;10918292;27;20046;-73
2022/04/19 01:20:15;;;;;;;5.95;4.00;;;12.60;63.80;;;;;;10925397;32;20342;-73
2022/04/19 01:26:18;;;;;;;6.90;3.92;;;12.50;63.80;;;;;;10939733;32;20411;-73
2022/04/19 01:32:20;;;;;;;3.62;2.67;;;12.50;64.00;;;;;;10942360;32;20018;-73
2022/04/19 01:38:23;;;;;;;6.57;4.32;;;12.40;64.40;;;;;;10942557;32;20049;-73
2022/04/19 01:44:25;;;;;;;11.77;4.68;;;12.50;64.00;;;;;;10942310;32;20062;-73
2022/04/19 01:50:28;;;;;;;4.53;3.25;;;12.30;63.80;;;;;;10941497;32;20015;-73
2022/04/19 01:56:32;;;;;;;4.87;3.75;;;12.30;64.30;;;;;;10942019;32;20049;-73
2022/04/19 02:02:36;;;;;;;4.32;3.20;;;12.30;64.60;;;;;;10941793;32;20077;-73
2022/04/19 02:08:43;;;;;;;3.75;2.65;;;12.20;64.30;;;;;;10941631;32;20037;-73
2022/04/19 02:14:48;;;;;;;4.43;3.47;;;12.10;64.60;;;;;;10941818;32;20445;-73
2022/04/19 02:21:04;;;;;;;3.40;2.83;;;12.00;64.50;;;;;;10941528;32;20338;-73
2022/04/19 02:27:07;;;;;;;4.90;2.80;;;11.90;64.80;;;;;;10941469;32;20019;-73
2022/04/19 02:33:09;;;;;;;4.15;2.40;;;11.90;65.00;;;;;;10941337;32;20027;-73
2022/04/19 02:39:11;;;;;;;4.25;2.47;;;11.90;65.00;;;;;;10941246;32;20019;-73
2022/04/19 02:45:14;;;;;;;3.47;3.15;;;11.80;65.40;;;;;;10946103;32;20053;-73
2022/04/19 02:51:42;;;;;;;5.68;4.47;;;11.80;65.40;;;;;;10934737;32;20050;-73
2022/04/19 02:57:44;;;;;;;7.25;3.87;;;11.70;65.50;;;;;;10947988;32;20049;-73
2022/04/19 03:03:47;;;;;;;10.70;3.10;;;11.70;66.00;;;;;;10945101;32;20057;-73
2022/04/19 03:09:54;;;;;;;5.00;3.97;;;11.50;66.00;;;;;;10944201;32;20045;-70
2022/04/19 03:15:56;;;;;;;6.30;4.28;;;11.40;66.20;;;;;;10932685;32;20292;-70
2022/04/19 03:21:59;;;;;;;4.97;3.70;;;11.50;66.40;;;;;;10943908;32;20031;-70
2022/04/19 03:28:02;;;;;;;4.45;3.58;;;11.30;66.10;;;;;;10943408;32;20019;-71
2022/04/19 03:34:05;;;;;;;3.20;2.47;;;11.30;66.20;;;;;;10946362;32;20053;-71
2022/04/19 03:40:09;;;;;;;5.25;3.50;;;11.20;66.30;;;;;;10945266;32;20031;-70
2022/04/19 03:46:12;;;;;;;3.70;2.37;;;11.20;66.70;;;;;;10932339;32;20027;-70
2022/04/19 03:52:14;;;;;;;3.12;2.60;;;11.10;66.90;;;;;;10932154;32;20413;-70
2022/04/19 03:58:17;;;;;;;3.55;2.47;;;11.00;67.00;;;;;;10944731;32;20045;-70
2022/04/19 04:04:21;;;;;;;2.58;2.10;;;10.90;66.90;;;;;;10945174;32;20049;-70
2022/04/19 04:10:23;;;;;;;2.78;2.50;;;10.80;66.90;;;;;;10940728;32;20050;-70
2022/04/19 04:16:25;;;;;;;4.10;2.62;;;10.80;66.90;;;;;;10940464;32;20055;-70
2022/04/19 04:22:28;;;;;;;5.37;3.53;;;10.80;67.00;;;;;;10944406;32;20030;-70
2022/04/19 04:28:30;;;;;;;4.65;3.53;;;10.80;67.20;;;;;;10944234;32;20100;-70
2022/04/19 04:34:33;;;;;;;3.00;2.35;;;10.80;67.00;;;;;;10940023;32;20047;-70
2022/04/19 04:40:36;;;;;;;6.35;4.78;;;10.90;66.90;;;;;;10943191;32;20050;-70
2022/04/19 04:53:00;;;;;;;17.30;11.32;;;10.90;67.10;;;;;;10944487;32;20087;-70
2022/04/19 04:59:03;;;;;;;49.30;29.12;;;10.90;67.60;;;;;;10942150;32;20353;-70
2022/04/19 05:05:06;;;;;;;22.37;15.57;;;11.00;67.40;;;;;;10941151;32;20058;-70
2022/04/19 05:11:09;;;;;;;30.42;16.60;;;11.10;67.70;;;;;;10942770;32;20049;-70
2022/04/19 05:17:11;;;;;;;16.23;12.37;;;11.10;67.40;;;;;;10942645;32;20034;-70
2022/04/19 05:23:14;;;;;;;15.73;10.00;;;11.20;67.20;;;;;;10942266;32;20034;-70
2022/04/19 05:29:16;;;;;;;13.13;10.65;;;11.30;66.80;;;;;;10942103;32;20022;-70
2022/04/19 05:35:19;;;;;;;10.80;7.90;;;11.30;67.10;;;;;;10942172;32;20281;-70
2022/04/19 05:41:22;;;;;;;8.23;5.72;;;11.50;66.70;;;;;;10940947;32;20301;-70
2022/04/19 05:47:24;;;;;;;6.60;4.72;;;11.50;66.50;;;;;;10941914;32;20058;-70
2022/04/19 05:53:26;;;;;;;8.45;5.00;;;11.60;66.70;;;;;;10941572;32;20023;-70
2022/04/19 05:59:29;;;;;;;4.82;3.67;;;11.70;66.70;;;;;;10941634;32;20027;-70
2022/04/19 06:05:31;;;;;;;6.68;4.82;;;11.80;66.50;;;;;;10940844;32;20049;-70
2022/04/19 06:11:36;;;;;;;6.07;4.95;;;11.80;66.20;;;;;;10941489;32;20263;-70
2022/04/19 06:17:40;;;;;;;6.30;5.05;;;12.00;66.40;;;;;;10941516;32;20046;-70
2022/04/19 06:23:43;;;;;;;5.87;4.32;;;12.00;65.90;;;;;;10938128;32;20051;-70
2022/04/19 06:29:46;;;;;;;7.47;4.47;;;12.20;66.50;;;;;;10910991;32;20069;-70
2022/04/19 06:35:48;;;;;;;5.75;3.83;;;12.20;66.50;;;;;;10910569;32;20019;-70
2022/04/19 06:42:44;;;;;;;8.30;4.35;;;12.20;66.60;;;;;;10906539;32;20336;-70
2022/04/19 06:48:50;;;;;;;6.95;5.10;;;12.30;66.20;;;;;;10795950;32;20059;-70
2022/04/19 06:54:52;;;;;;;8.35;5.55;;;12.40;66.20;;;;;;10794993;32;20028;-70
2022/04/19 07:00:54;;;;;;;6.18;3.90;;;12.50;65.90;;;;;;10790458;32;20054;-70
2022/04/19 07:06:56;;;;;;;7.05;4.22;;;12.60;65.60;;;;;;10790236;32;20056;-70
2022/04/19 07:13:00;;;;;;;16.92;4.15;;;12.70;65.60;;;;;;10789893;33;20040;-70
2022/04/19 07:19:02;;;;;;;4.82;3.50;;;12.80;65.50;;;;;;10811638;32;20333;-70
2022/04/19 07:31:56;;;;;;;5.78;4.07;;;13.10;65.00;;;;;;10904016;32;20043;-70
2022/04/19 07:38:00;;;;;;;8.85;4.22;;;13.30;64.40;;;;;;10908403;32;20058;-70
2022/04/19 07:44:05;;;;;;;6.93;4.90;;;13.50;63.90;;;;;;10908124;32;20031;-70
2022/04/19 07:50:08;;;;;;;7.62;5.25;;;13.70;62.90;;;;;;10907920;32;20050;-70
2022/04/19 07:56:11;;;;;;;7.22;4.40;;;13.90;61.90;;;;;;10892323;32;20031;-70
2022/04/19 08:02:14;;;;;;;8.40;5.60;;;14.00;60.80;;;;;;10913584;32;20305;-70
2022/04/19 08:08:18;;;;;;;6.55;3.60;;;14.20;59.90;;;;;;10942600;32;20089;-70
2022/04/19 08:14:42;;;;;;;4.90;3.47;;;14.30;58.30;;;;;;10944798;32;20026;-70
2022/04/19 08:20:45;;;;;;;5.72;3.55;;;14.40;56.40;;;;;;10944352;32;20023;-70
2022/04/19 08:26:47;;;;;;;6.12;4.37;;;14.60;56.00;;;;;;10942810;32;20038;-70
2022/04/19 08:32:50;;;;;;;6.12;4.03;;;14.80;55.60;;;;;;10944076;32;20034;-73
2022/04/19 08:38:53;;;;;;;4.30;3.20;;;14.90;54.80;;;;;;10940643;32;20057;-73
2022/04/19 08:45:01;;;;;;;4.75;3.15;;;15.10;54.30;;;;;;10943819;32;20351;-74
2022/04/19 08:51:08;;;;;;;6.57;3.08;;;15.20;54.20;;;;;;10943643;32;20340;-73
2022/04/19 09:03:33;;;;;;;5.03;3.25;;;15.50;53.50;;;;;;10943229;32;20027;-74
2022/04/19 09:09:37;;;;;;;3.65;2.35;;;15.60;53.30;;;;;;10938952;32;20031;-74
2022/04/19 09:16:08;;;;;;;3.90;2.42;;;15.70;52.40;;;;;;10932675;27;456396;-73
2022/04/19 09:22:30;;;;;;;6.53;3.22;;;15.80;52.50;;;;;;10939842;32;20031;-74
2022/04/19 09:28:34;;;;;;;3.42;2.25;;;15.80;52.10;;;;;;10940375;32;20031;-73
2022/04/19 09:34:37;;;;;;;3.22;2.40;;;16.00;51.70;;;;;;10942176;32;20042;-74
2022/04/19 09:40:42;;;;;;;5.62;3.17;;;16.20;51.90;;;;;;10940789;32;20020;-74
2022/04/19 09:47:05;;;;;;;3.45;2.50;;;16.40;51.30;;;;;;10942171;32;20019;-73
2022/04/19 09:53:08;;;;;;;3.35;2.65;;;16.30;51.00;;;;;;10941411;32;20023;-73
2022/04/19 09:59:11;;;;;;;5.80;2.92;;;16.30;50.60;;;;;;10941513;32;20054;-74
2022/04/19 10:11:38;;;;;;;4.28;3.17;;;16.50;50.90;;;;;;10941357;32;20055;-74
2022/04/19 10:17:41;;;;;;;3.80;2.65;;;16.80;50.40;;;;;;10939606;32;20019;-74
2022/04/19 10:23:45;;;;;;;6.35;3.42;;;17.10;50.40;;;;;;10941433;32;20027;-74
2022/04/19 10:29:51;;;;;;;8.55;3.50;;;17.00;51.00;;;;;;10940971;32;20085;-74
2022/04/19 10:36:32;;;;;;;3.90;2.42;;;16.80;53.20;;;;;;10919956;32;20427;-73
2022/04/19 10:42:38;;;;;;;4.03;3.12;;;17.00;52.10;;;;;;10899476;32;20026;-73
2022/04/19 10:49:23;;;;;;;4.15;2.45;;;17.10;52.30;;;;;;10903304;32;20027;-74
2022/04/19 10:56:40;;;;;;;3.95;2.92;;;17.30;52.50;;;;;;10749683;32;20048;-74
2022/04/19 11:02:43;;;;;;;5.12;2.80;;;17.60;52.60;;;;;;10752613;33;20032;-74
2022/04/19 11:09:14;;;;;;;6.22;3.45;;;17.80;52.80;;;;;;10758698;32;20028;-73
2022/04/19 11:15:16;;;;;;;4.87;3.60;;;18.10;52.90;;;;;;10757621;33;20059;-73
2022/04/19 11:21:47;;;;;;;3.75;2.42;;;18.10;53.10;;;;;;10758182;32;20378;-72
2022/04/19 11:28:20;;;;;;;4.80;2.55;;;18.40;51.90;;;;;;10790277;32;20027;-72
2022/04/19 11:34:23;;;;;;;3.85;2.37;;;18.80;51.40;;;;;;10868604;32;20057;-73
2022/04/19 11:46:51;;;;;;;8.57;3.60;;;19.60;49.40;;;;;;10904876;32;20062;-74
2022/04/19 11:52:54;;;;;;;2.55;2.08;;;19.60;48.90;;;;;;10895122;32;20020;-72
2022/04/19 11:58:59;;;;;;;3.58;1.52;;;19.30;49.30;;;;;;10908321;32;20031;-73
2022/04/19 12:05:03;;;;;;;3.95;2.20;;;19.40;49.30;;;;;;10905776;32;20032;-72
2022/04/19 12:11:07;;;;;;;2.60;1.73;;;19.50;49.10;;;;;;10905274;32;20445;-72
2022/04/19 12:17:18;;;;;;;2.72;2.05;;;19.70;48.90;;;;;;10894211;32;20035;-72
2022/04/19 12:23:27;;;;;;;2.53;1.75;;;20.00;48.50;;;;;;10894230;32;20019;-72
2022/04/19 12:30:00;;;;;;;3.47;2.03;;;20.30;48.10;;;;;;10903126;32;20019;-72
2022/04/19 12:36:02;;;;;;;3.00;1.77;;;20.50;48.30;;;;;;10895771;32;20050;-72
2022/04/19 12:42:09;;;;;;;5.25;2.53;;;20.50;47.80;;;;;;10902607;32;20019;-72
2022/04/19 12:48:22;;;;;;;2.58;1.70;;;20.00;48.20;;;;;;10905120;32;20045;-72
2022/04/19 12:54:29;;;;;;;4.50;2.55;;;19.40;49.80;;;;;;10906049;32;20395;-73
2022/04/19 13:00:31;;;;;;;4.32;2.70;;;19.00;50.10;;;;;;10892666;32;20027;-72
2022/04/19 13:12:54;;;;;;;5.75;3.70;;;18.50;50.90;;;;;;10906970;32;20022;-73
2022/04/19 13:18:56;;;;;;;4.60;2.97;;;18.50;51.30;;;;;;10908966;32;20026;-72
2022/04/19 13:24:58;;;;;;;4.97;3.50;;;18.30;51.80;;;;;;10900948;32;20027;-72
2022/04/19 13:31:00;;;;;;;7.57;3.22;;;18.00;53.10;;;;;;10887705;32;20042;-73
2022/04/19 13:37:03;;;;;;;5.60;3.25;;;17.70;53.70;;;;;;10905191;32;20030;-72
2022/04/19 13:43:05;;;;;;;6.47;3.92;;;17.70;53.10;;;;;;10904442;32;20050;-73
2022/04/19 13:49:11;;;;;;;9.13;3.72;;;17.60;53.70;;;;;;10886933;32;20054;-73
2022/04/19 13:55:18;;;;;;;5.97;4.30;;;17.40;54.30;;;;;;10903482;32;20016;-72
2022/04/19 14:01:20;;;;;;;4.37;3.22;;;17.30;54.80;;;;;;10904735;32;20027;-73
2022/04/19 14:07:23;;;;;;;7.18;4.72;;;17.20;55.60;;;;;;10902159;32;20042;-72
2022/04/19 14:13:25;;;;;;;5.75;3.87;;;17.20;55.50;;;;;;10901314;32;20019;-73
2022/04/19 14:19:28;;;;;;;5.95;3.72;;;17.20;55.60;;;;;;10904198;32;20023;-72
2022/04/19 14:25:30;;;;;;;8.77;3.90;;;17.10;55.50;;;;;;10899925;32;20027;-73
2022/04/19 14:37:53;;;;;;;6.45;4.40;;;17.00;55.50;;;;;;10900981;32;20425;-72
2022/04/19 14:43:55;;;;;;;10.07;5.25;;;17.00;55.10;;;;;;10910864;32;20023;-73
2022/04/19 14:49:57;;;;;;;7.25;3.92;;;17.20;55.30;;;;;;10909446;32;20050;-72
2022/04/19 14:56:00;;;;;;;6.65;3.20;;;17.10;55.00;;;;;;10910484;32;20101;-73
2022/04/19 15:02:04;;;;;;;5.95;3.90;;;17.10;55.10;;;;;;10907656;32;20362;-73
2022/04/19 15:08:06;;;;;;;6.37;3.83;;;17.10;55.10;;;;;;10893641;32;20290;-73
2022/04/19 15:14:08;;;;;;;5.70;3.75;;;17.10;55.10;;;;;;10894868;32;20065;-73
2022/04/19 15:20:10;;;;;;;8.48;3.67;;;17.00;55.40;;;;;;10941618;32;20057;-74
2022/04/19 15:26:13;;;;;;;9.90;6.47;;;16.80;55.40;;;;;;10933275;32;20050;-74
2022/04/19 15:32:17;;;;;;;5.40;3.50;;;16.70;56.10;;;;;;10946616;32;20300;-73
2022/04/19 15:38:19;;;;;;;5.78;3.33;;;16.60;56.60;;;;;;10933155;32;20350;-73
2022/04/19 15:44:21;;;;;;;3.75;2.53;;;16.60;57.00;;;;;;10945365;32;20340;-73
2022/04/19 15:50:23;;;;;;;4.60;2.55;;;16.50;57.10;;;;;;10942794;32;20035;-73
2022/04/19 15:56:26;;;;;;;9.15;4.28;;;16.50;56.80;;;;;;10945946;32;20031;-73
2022/04/19 16:02:28;;;;;;;8.77;4.15;;;16.90;57.00;;;;;;10945524;32;20316;-73
2022/04/19 16:08:30;;;;;;;10.05;4.18;;;17.80;56.70;;;;;;10945263;32;20027;-73
2022/04/19 16:14:33;;;;;;;6.20;3.28;;;18.20;56.50;;;;;;10931295;32;20345;-73
2022/04/19 16:26:57;;;;;;;6.28;2.75;;;18.90;54.50;;;;;;10907070;32;20093;-73
2022/04/19 16:33:00;;;;;;;3.78;2.05;;;19.80;52.50;;;;;;10913378;32;20031;-74
2022/04/19 16:39:02;;;;;;;3.60;2.25;;;19.90;52.00;;;;;;10926594;32;20032;-73
2022/04/19 16:45:05;;;;;;;4.30;2.47;;;20.00;51.60;;;;;;10902277;32;20023;-73
2022/04/19 16:51:07;;;;;;;11.93;3.20;;;20.50;50.70;;;;;;10905157;32;20063;-74
2022/04/19 16:57:09;;;;;;;3.72;3.03;;;20.70;50.50;;;;;;10905872;32;20042;-73
2022/04/19 17:09:33;;;;;;;4.32;2.22;;;20.70;50.10;;;;;;10904997;32;20020;-74
2022/04/19 17:15:36;;;;;;;5.07;2.50;;;20.60;50.20;;;;;;10927527;27;20023;-73
2022/04/19 17:21:38;;;;;;;3.70;2.65;;;20.30;50.40;;;;;;10936797;32;20426;-74
2022/04/19 17:27:41;;;;;;;20.77;2.97;;;19.60;51.50;;;;;;10942271;32;20030;-74
2022/04/19 17:33:43;;;;;;;7.47;4.72;;;19.10;52.30;;;;;;10941926;32;20050;-74
2022/04/19 17:39:45;;;;;;;6.03;2.72;;;18.40;53.10;;;;;;10941965;32;20319;-73
2022/04/19 17:45:48;;;;;;;5.32;3.40;;;17.80;54.20;;;;;;10916102;32;20386;-72
2022/04/19 17:58:11;;;;;;;7.18;3.42;;;17.20;55.70;;;;;;10931491;32;20072;-73
2022/04/19 18:04:14;;;;;;;5.47;4.10;;;16.80;56.00;;;;;;10914600;32;20039;-73
2022/04/19 18:10:16;;;;;;;8.27;3.45;;;16.60;56.80;;;;;;10919728;32;20458;-73
2022/04/19 18:16:22;;;;;;;5.47;3.58;;;16.50;57.30;;;;;;10936515;32;20031;-72
2022/04/19 18:28:44;;;;;;;8.65;4.37;;;16.30;57.60;;;;;;10935163;32;20034;-72
2022/04/19 18:34:46;;;;;;;7.70;3.85;;;16.20;57.60;;;;;;10926201;32;20047;-72
2022/04/19 18:40:50;;;;;;;4.72;3.50;;;16.10;57.80;;;;;;10912862;32;20023;-72
2022/04/19 18:47:03;;;;;;;7.47;4.65;;;16.00;58.20;;;;;;10910360;32;20039;-72
2022/04/19 18:53:05;;;;;;;7.10;4.90;;;15.90;58.70;;;;;;10892561;32;20065;-73
2022/04/19 18:59:07;;;;;;;6.12;3.95;;;15.80;58.90;;;;;;10909782;32;20031;-73
2022/04/19 19:05:11;;;;;;;7.72;4.12;;;15.80;59.00;;;;;;10910275;32;20433;-73
2022/04/19 19:11:13;;;;;;;11.70;6.22;;;15.70;59.10;;;;;;10909719;32;20340;-72
2022/04/19 19:17:15;;;;;;;7.60;5.00;;;15.60;59.20;;;;;;10909442;32;20042;-72
2022/04/19 19:23:32;;;;;;;7.05;4.55;;;15.50;59.40;;;;;;10909377;32;20058;-72
2022/04/19 19:29:35;;;;;;;9.70;4.00;;;15.50;59.50;;;;;;10909362;32;20391;-72
2022/04/19 19:35:39;;;;;;;5.32;3.55;;;15.40;59.80;;;;;;10909120;32;20027;-72
2022/04/19 19:41:42;;;;;;;8.45;4.15;;;15.30;60.60;;;;;;10908833;32;20045;-73
2022/04/19 19:47:44;;;;;;;7.50;3.70;;;15.20;61.20;;;;;;10891038;32;20035;-74
2022/04/19 19:53:46;;;;;;;4.93;3.00;;;15.20;61.40;;;;;;10907526;32;20046;-73
2022/04/19 19:59:48;;;;;;;7.35;3.42;;;15.20;61.50;;;;;;10907905;32;20086;-73
2022/04/19 20:05:50;;;;;;;4.25;3.12;;;15.10;62.10;;;;;;10908068;32;20023;-73
2022/04/19 20:11:52;;;;;;;11.02;5.50;;;15.00;62.80;;;;;;10907474;32;20046;-73
2022/04/19 20:17:54;;;;;;;7.72;5.28;;;14.90;63.20;;;;;;10907245;32;20340;-73
2022/04/19 20:23:56;;;;;;;10.23;5.97;;;14.80;63.80;;;;;;10906796;32;20392;-74
2022/04/19 20:29:59;;;;;;;5.28;3.80;;;14.70;64.20;;;;;;10893621;32;20023;-73
2022/04/19 20:36:01;;;;;;;7.82;4.90;;;14.60;64.60;;;;;;10906073;32;20031;-74
2022/04/19 20:42:28;;;;;;;5.25;3.53;;;14.70;64.40;;;;;;10906646;32;20396;-73
2022/04/19 20:55:49;;;;;;;4.28;2.53;;;14.60;64.80;;;;;;10787816;32;20031;-73
2022/04/19 21:01:53;;;;;;;6.57;3.42;;;14.60;65.10;;;;;;10778637;32;20016;-73
2022/04/19 21:07:56;;;;;;;6.95;3.83;;;14.60;65.10;;;;;;10790595;33;20032;-73
2022/04/19 21:13:59;;;;;;;13.18;4.55;;;14.50;65.30;;;;;;10790369;33;20040;-73
2022/04/19 21:20:03;;;;;;;4.35;2.67;;;14.40;65.50;;;;;;10791185;33;20032;-74
2022/04/19 21:26:05;;;;;;;5.43;3.37;;;14.40;65.70;;;;;;10886013;32;20024;-72
2022/04/19 21:32:08;;;;;;;4.43;3.22;;;14.50;65.70;;;;;;10905275;32;20055;-73
2022/04/19 21:38:10;;;;;;;4.30;3.45;;;14.30;66.00;;;;;;10905119;32;20016;-73
2022/04/19 21:44:13;;;;;;;6.07;3.60;;;14.20;66.70;;;;;;10902902;32;20065;-73
2022/04/19 21:50:15;;;;;;;4.20;3.35;;;14.20;66.90;;;;;;10904017;32;20388;-73
2022/04/19 21:56:17;;;;;;;4.57;3.28;;;14.10;67.20;;;;;;10891195;32;20050;-73
2022/04/19 22:02:20;;;;;;;9.43;4.40;;;14.10;67.40;;;;;;10904369;32;20019;-74
2022/04/19 22:08:22;;;;;;;5.10;3.47;;;14.00;67.50;;;;;;10904406;32;20031;-73
2022/04/19 22:14:24;;;;;;;5.53;3.03;;;14.00;67.60;;;;;;10904237;32;20024;-73
2022/04/19 22:20:26;;;;;;;4.97;3.67;;;14.00;67.30;;;;;;10903976;32;20023;-74
2022/04/19 22:26:28;;;;;;;6.87;4.12;;;13.90;67.30;;;;;;10903802;32;20027;-73
2022/04/19 22:32:30;;;;;;;14.13;4.12;;;13.80;67.90;;;;;;10903855;32;20049;-73
2022/04/19 22:38:35;;;;;;;8.55;4.47;;;13.80;68.00;;;;;;10903756;32;20023;-73
2022/04/19 22:44:37;;;;;;;5.78;4.20;;;13.80;68.20;;;;;;10903583;32;20050;-73
2022/04/19 22:50:39;;;;;;;7.10;4.25;;;13.80;68.40;;;;;;10903615;32;20101;-73
2022/04/19 22:56:41;;;;;;;11.12;3.90;;;13.80;68.60;;;;;;10890285;32;20422;-73
2022/04/19 23:02:43;;;;;;;5.15;3.72;;;13.70;68.60;;;;;;10904570;32;20050;-73
2022/04/19 23:08:45;;;;;;;7.10;5.45;;;13.70;68.40;;;;;;10896858;32;20054;-73
2022/04/19 23:14:47;;;;;;;13.35;4.20;;;13.70;68.30;;;;;;10909956;32;20011;-73
2022/04/19 23:20:49;;;;;;;5.20;3.40;;;13.70;68.10;;;;;;10905520;32;20019;-73
2022/04/19 23:33:12;;;;;;;5.22;3.60;;;13.50;68.70;;;;;;10909138;32;20027;-74
2022/04/19 23:39:14;;;;;;;8.93;3.65;;;13.50;69.20;;;;;;10906866;32;20355;-73
2022/04/19 23:45:15;;;;;;;4.37;2.92;;;13.40;69.10;;;;;;10908867;32;20059;-73
2022/04/19 23:51:17;;;;;;;5.35;3.28;;;13.30;68.90;;;;;;10908766;32;20496;-73
2022/04/19 23:57:22;;;;;;;5.15;3.78;;;13.30;68.90;;;;;;10906724;32;20027;-73
